sensor_id;sensor_type;location;lat;lon;timestamp;P1;P2;P0
64229;PMS5003;50547;49.498;0.092;2022-12-16T00:01:35;15;14;
64229;PMS5003;50547;49.498;0.092;2022-12-16T00:04:04;17;15;
64229;PMS5003;50547;49.498;0.092;2022-12-16T00:06:33;15;14;
64229;PMS5003;50547;49.498;0.092;2022-12-16T00:09:02;17;15;
64229;PMS5003;50547;49.498;0.092;2022-12-16T00:11:31;19;17;
64229;PMS5003;50547;49.498;0.092;2022-12-16T00:14:00;19;17;
64229;PMS5003;50547;49.498;0.092;2022-12-16T00:16:29;18;16;
64229;PMS5003;50547;49.498;0.092;2022-12-16T00:18:59;20;17;
64229;PMS5003;50547;49.498;0.092;2022-12-16T00:21:28;20;17;
64229;PMS5003;50547;49.498;0.092;2022-12-16T00:23:57;20;17;
64229;PMS5003;50547;49.498;0.092;2022-12-16T00:26:26;20;17;
64229;PMS5003;50547;49.498;0.092;2022-12-16T00:28:55;20;17;
64229;PMS5003;50547;49.498;0.092;2022-12-16T00:31:25;20;17;
64229;PMS5003;50547;49.498;0.092;2022-12-16T00:33:54;18;16;
64229;PMS5003;50547;49.498;0.092;2022-12-16T00:36:24;22;19;
64229;PMS5003;50547;49.498;0.092;2022-12-16T00:38:53;22;19;
64229;PMS5003;50547;49.498;0.092;2022-12-16T00:41:22;23;20;
64229;PMS5003;50547;49.498;0.092;2022-12-16T00:43:51;22;19;
64229;PMS5003;50547;49.498;0.092;2022-12-16T00:46:20;22;19;
64229;PMS5003;50547;49.498;0.092;2022-12-16T00:48:49;23;20;
64229;PMS5003;50547;49.498;0.092;2022-12-16T00:51:18;23;20;
64229;PMS5003;50547;49.498;0.092;2022-12-16T00:53:47;23;20;
64229;PMS5003;50547;49.498;0.092;2022-12-16T00:56:17;25;22;
64229;PMS5003;50547;49.498;0.092;2022-12-16T00:58:46;23;20;
64229;PMS5003;50547;49.498;0.092;2022-12-16T01:01:15;23;20;
64229;PMS5003;50547;49.498;0.092;2022-12-16T01:03:44;24;21;
64229;PMS5003;50547;49.498;0.092;2022-12-16T01:06:14;23;20;
64229;PMS5003;50547;49.498;0.092;2022-12-16T01:08:44;23;20;
64229;PMS5003;50547;49.498;0.092;2022-12-16T01:11:14;23;20;
64229;PMS5003;50547;49.498;0.092;2022-12-16T01:13:44;24;21;
64229;PMS5003;50547;49.498;0.092;2022-12-16T01:16:13;23;20;
64229;PMS5003;50547;49.498;0.092;2022-12-16T01:18:42;23;20;
64229;PMS5003;50547;49.498;0.092;2022-12-16T01:21:13;23;20;
64229;PMS5003;50547;49.498;0.092;2022-12-16T01:23:43;23;20;
64229;PMS5003;50547;49.498;0.092;2022-12-16T01:26:13;19;17;
64229;PMS5003;50547;49.498;0.092;2022-12-16T01:28:46;18;16;
64229;PMS5003;50547;49.498;0.092;2022-12-16T01:31:16;18;16;
64229;PMS5003;50547;49.498;0.092;2022-12-16T01:33:45;14;14;
64229;PMS5003;50547;49.498;0.092;2022-12-16T01:36:15;14;14;
64229;PMS5003;50547;49.498;0.092;2022-12-16T01:38:44;13;13;
64229;PMS5003;50547;49.498;0.092;2022-12-16T01:41:14;15;14;
64229;PMS5003;50547;49.498;0.092;2022-12-16T01:43:44;14;14;
64229;PMS5003;50547;49.498;0.092;2022-12-16T01:46:15;14;14;
64229;PMS5003;50547;49.498;0.092;2022-12-16T01:48:50;14;14;
64229;PMS5003;50547;49.498;0.092;2022-12-16T01:51:23;13;13;
64229;PMS5003;50547;49.498;0.092;2022-12-16T01:53:56;13;13;
64229;PMS5003;50547;49.498;0.092;2022-12-16T01:56:30;13;13;
64229;PMS5003;50547;49.498;0.092;2022-12-16T01:58:57;11;11;
64229;PMS5003;50547;49.498;0.092;2022-12-16T02:01:28;11;11;
64229;PMS5003;50547;49.498;0.092;2022-12-16T02:03:58;11;11;
64229;PMS5003;50547;49.498;0.092;2022-12-16T02:06:30;10;10;
64229;PMS5003;50547;49.498;0.092;2022-12-16T02:09:02;11;11;
64229;PMS5003;50547;49.498;0.092;2022-12-16T02:11:41;11;11;
64229;PMS5003;50547;49.498;0.092;2022-12-16T02:14:30;11;11;
64229;PMS5003;50547;49.498;0.092;2022-12-16T02:17:13;11;11;
64229;PMS5003;50547;49.498;0.092;2022-12-16T02:20:04;11;11;
64229;PMS5003;50547;49.498;0.092;2022-12-16T02:22:48;13;13;
64229;PMS5003;50547;49.498;0.092;2022-12-16T02:26:09;20;17;
64229;PMS5003;50547;49.498;0.092;2022-12-16T02:29:00;20;17;
64229;PMS5003;50547;49.498;0.092;2022-12-16T02:31:49;18;16;
64229;PMS5003;50547;49.498;0.092;2022-12-16T02:34:24;18;16;
64229;PMS5003;50547;49.498;0.092;2022-12-16T02:37:00;18;16;
64229;PMS5003;50547;49.498;0.092;2022-12-16T02:39:39;17;15;
64229;PMS5003;50547;49.498;0.092;2022-12-16T02:42:14;14;14;
64229;PMS5003;50547;49.498;0.092;2022-12-16T02:44:50;13;13;
64229;PMS5003;50547;49.498;0.092;2022-12-16T02:47:27;13;13;
64229;PMS5003;50547;49.498;0.092;2022-12-16T02:49:58;13;13;
64229;PMS5003;50547;49.498;0.092;2022-12-16T02:52:28;13;13;
64229;PMS5003;50547;49.498;0.092;2022-12-16T02:55:00;14;14;
64229;PMS5003;50547;49.498;0.092;2022-12-16T02:57:39;13;13;
64229;PMS5003;50547;49.498;0.092;2022-12-16T03:00:20;13;13;
64229;PMS5003;50547;49.498;0.092;2022-12-16T03:02:52;13;13;
64229;PMS5003;50547;49.498;0.092;2022-12-16T03:05:26;13;13;
64229;PMS5003;50547;49.498;0.092;2022-12-16T03:08:01;13;13;
64229;PMS5003;50547;49.498;0.092;2022-12-16T03:10:34;13;13;
64229;PMS5003;50547;49.498;0.092;2022-12-16T03:13:07;13;13;
64229;PMS5003;50547;49.498;0.092;2022-12-16T03:15:39;13;13;
64229;PMS5003;50547;49.498;0.092;2022-12-16T03:18:11;13;13;
64229;PMS5003;50547;49.498;0.092;2022-12-16T03:20:44;13;13;
64229;PMS5003;50547;49.498;0.092;2022-12-16T03:23:19;13;13;
64229;PMS5003;50547;49.498;0.092;2022-12-16T03:25:53;13;13;
64229;PMS5003;50547;49.498;0.092;2022-12-16T03:28:31;13;13;
64229;PMS5003;50547;49.498;0.092;2022-12-16T03:31:13;13;13;
64229;PMS5003;50547;49.498;0.092;2022-12-16T03:33:53;13;13;
64229;PMS5003;50547;49.498;0.092;2022-12-16T03:36:27;13;13;
64229;PMS5003;50547;49.498;0.092;2022-12-16T03:39:00;13;13;
64229;PMS5003;50547;49.498;0.092;2022-12-16T03:41:32;13;13;
64229;PMS5003;50547;49.498;0.092;2022-12-16T03:44:03;13;13;
64229;PMS5003;50547;49.498;0.092;2022-12-16T03:46:29;13;13;
64229;PMS5003;50547;49.498;0.092;2022-12-16T03:48:58;13;13;
64229;PMS5003;50547;49.498;0.092;2022-12-16T03:51:27;13;13;
64229;PMS5003;50547;49.498;0.092;2022-12-16T03:53:54;13;13;
64229;PMS5003;50547;49.498;0.092;2022-12-16T03:56:23;13;13;
64229;PMS5003;50547;49.498;0.092;2022-12-16T03:58:52;13;13;
64229;PMS5003;50547;49.498;0.092;2022-12-16T04:01:18;13;13;
64229;PMS5003;50547;49.498;0.092;2022-12-16T04:03:48;13;13;
64229;PMS5003;50547;49.498;0.092;2022-12-16T04:06:14;13;13;
64229;PMS5003;50547;49.498;0.092;2022-12-16T04:08:44;13;13;
64229;PMS5003;50547;49.498;0.092;2022-12-16T04:11:14;14;14;
64229;PMS5003;50547;49.498;0.092;2022-12-16T04:13:44;14;14;
64229;PMS5003;50547;49.498;0.092;2022-12-16T04:16:13;14;14;
64229;PMS5003;50547;49.498;0.092;2022-12-16T04:18:44;13;13;
64229;PMS5003;50547;49.498;0.092;2022-12-16T04:21:15;14;14;
64229;PMS5003;50547;49.498;0.092;2022-12-16T04:23:42;13;13;
64229;PMS5003;50547;49.498;0.092;2022-12-16T04:26:16;13;13;
64229;PMS5003;50547;49.498;0.092;2022-12-16T04:28:46;13;13;
64229;PMS5003;50547;49.498;0.092;2022-12-16T04:31:15;13;13;
64229;PMS5003;50547;49.498;0.092;2022-12-16T04:33:41;13;13;
64229;PMS5003;50547;49.498;0.092;2022-12-16T04:36:11;13;13;
64229;PMS5003;50547;49.498;0.092;2022-12-16T04:38:40;13;13;
64229;PMS5003;50547;49.498;0.092;2022-12-16T04:41:06;13;13;
64229;PMS5003;50547;49.498;0.092;2022-12-16T04:43:35;13;13;
64229;PMS5003;50547;49.498;0.092;2022-12-16T04:46:05;13;13;
64229;PMS5003;50547;49.498;0.092;2022-12-16T04:48:31;13;13;
64229;PMS5003;50547;49.498;0.092;2022-12-16T04:51:00;11;11;
64229;PMS5003;50547;49.498;0.092;2022-12-16T04:53:30;11;11;
64229;PMS5003;50547;49.498;0.092;2022-12-16T04:55:56;11;11;
64229;PMS5003;50547;49.498;0.092;2022-12-16T04:58:25;11;11;
64229;PMS5003;50547;49.498;0.092;2022-12-16T05:00:54;10;10;
64229;PMS5003;50547;49.498;0.092;2022-12-16T05:03:21;11;11;
64229;PMS5003;50547;49.498;0.092;2022-12-16T05:05:50;10;10;
64229;PMS5003;50547;49.498;0.092;2022-12-16T05:08:16;10;10;
64229;PMS5003;50547;49.498;0.092;2022-12-16T05:10:46;11;11;
64229;PMS5003;50547;49.498;0.092;2022-12-16T05:13:15;11;11;
64229;PMS5003;50547;49.498;0.092;2022-12-16T05:15:41;11;11;
64229;PMS5003;50547;49.498;0.092;2022-12-16T05:18:11;10;10;
64229;PMS5003;50547;49.498;0.092;2022-12-16T05:20:42;10;10;
64229;PMS5003;50547;49.498;0.092;2022-12-16T05:23:08;10;10;
64229;PMS5003;50547;49.498;0.092;2022-12-16T05:25:37;10;10;
64229;PMS5003;50547;49.498;0.092;2022-12-16T05:28:07;10;10;
64229;PMS5003;50547;49.498;0.092;2022-12-16T05:30:33;10;10;
64229;PMS5003;50547;49.498;0.092;2022-12-16T05:33:02;10;10;
64229;PMS5003;50547;49.498;0.092;2022-12-16T05:35:32;10;10;
64229;PMS5003;50547;49.498;0.092;2022-12-16T05:38:01;10;10;
64229;PMS5003;50547;49.498;0.092;2022-12-16T05:40:31;10;10;
64229;PMS5003;50547;49.498;0.092;2022-12-16T05:43:00;9;9;
64229;PMS5003;50547;49.498;0.092;2022-12-16T05:45:30;10;10;
64229;PMS5003;50547;49.498;0.092;2022-12-16T05:47:59;10;10;
64229;PMS5003;50547;49.498;0.092;2022-12-16T05:50:28;11;11;
64229;PMS5003;50547;49.498;0.092;2022-12-16T05:52:58;10;10;
64229;PMS5003;50547;49.498;0.092;2022-12-16T05:55:27;10;10;
64229;PMS5003;50547;49.498;0.092;2022-12-16T05:57:56;10;10;
64229;PMS5003;50547;49.498;0.092;2022-12-16T06:00:26;8;8;
64229;PMS5003;50547;49.498;0.092;2022-12-16T06:02:55;9;9;
64229;PMS5003;50547;49.498;0.092;2022-12-16T06:05:24;8;8;
64229;PMS5003;50547;49.498;0.092;2022-12-16T06:07:54;8;8;
64229;PMS5003;50547;49.498;0.092;2022-12-16T06:10:23;7;7;
64229;PMS5003;50547;49.498;0.092;2022-12-16T06:12:52;7;7;
64229;PMS5003;50547;49.498;0.092;2022-12-16T06:15:22;8;8;
64229;PMS5003;50547;49.498;0.092;2022-12-16T06:17:51;7;7;
64229;PMS5003;50547;49.498;0.092;2022-12-16T06:20:21;7;7;
64229;PMS5003;50547;49.498;0.092;2022-12-16T06:22:50;7;7;
64229;PMS5003;50547;49.498;0.092;2022-12-16T06:25:20;6;6;
64229;PMS5003;50547;49.498;0.092;2022-12-16T06:27:50;7;7;
64229;PMS5003;50547;49.498;0.092;2022-12-16T06:30:19;5;5;
64229;PMS5003;50547;49.498;0.092;2022-12-16T06:32:49;7;7;
64229;PMS5003;50547;49.498;0.092;2022-12-16T06:35:18;5;5;
64229;PMS5003;50547;49.498;0.092;2022-12-16T06:37:48;4;4;
64229;PMS5003;50547;49.498;0.092;2022-12-16T06:40:17;4;4;
64229;PMS5003;50547;49.498;0.092;2022-12-16T06:42:46;4;4;
64229;PMS5003;50547;49.498;0.092;2022-12-16T06:45:16;4;4;
64229;PMS5003;50547;49.498;0.092;2022-12-16T06:47:45;4;4;
64229;PMS5003;50547;49.498;0.092;2022-12-16T06:50:15;6;6;
64229;PMS5003;50547;49.498;0.092;2022-12-16T06:52:44;5;5;
64229;PMS5003;50547;49.498;0.092;2022-12-16T06:55:14;7;7;
64229;PMS5003;50547;49.498;0.092;2022-12-16T06:57:43;7;7;
64229;PMS5003;50547;49.498;0.092;2022-12-16T07:00:13;8;8;
64229;PMS5003;50547;49.498;0.092;2022-12-16T07:02:42;10;10;
64229;PMS5003;50547;49.498;0.092;2022-12-16T07:05:12;10;10;
64229;PMS5003;50547;49.498;0.092;2022-12-16T07:07:45;10;10;
64229;PMS5003;50547;49.498;0.092;2022-12-16T07:10:12;10;10;
64229;PMS5003;50547;49.498;0.092;2022-12-16T07:12:41;10;10;
64229;PMS5003;50547;49.498;0.092;2022-12-16T07:15:11;5;5;
64229;PMS5003;50547;49.498;0.092;2022-12-16T07:17:40;5;5;
64229;PMS5003;50547;49.498;0.092;2022-12-16T07:20:09;4;4;
64229;PMS5003;50547;49.498;0.092;2022-12-16T07:22:41;6;6;
64229;PMS5003;50547;49.498;0.092;2022-12-16T07:25:10;5;5;
64229;PMS5003;50547;49.498;0.092;2022-12-16T07:27:43;5;5;
64229;PMS5003;50547;49.498;0.092;2022-12-16T07:30:13;5;5;
64229;PMS5003;50547;49.498;0.092;2022-12-16T07:32:43;10;10;
64229;PMS5003;50547;49.498;0.092;2022-12-16T07:35:12;6;6;
64229;PMS5003;50547;49.498;0.092;2022-12-16T07:37:41;7;7;
64229;PMS5003;50547;49.498;0.092;2022-12-16T07:40:11;10;10;
64229;PMS5003;50547;49.498;0.092;2022-12-16T07:42:40;10;10;
64229;PMS5003;50547;49.498;0.092;2022-12-16T07:45:10;10;10;
64229;PMS5003;50547;49.498;0.092;2022-12-16T07:47:47;11;11;
64229;PMS5003;50547;49.498;0.092;2022-12-16T07:50:16;10;10;
64229;PMS5003;50547;49.498;0.092;2022-12-16T07:52:52;9;9;
64229;PMS5003;50547;49.498;0.092;2022-12-16T07:55:22;8;8;
64229;PMS5003;50547;49.498;0.092;2022-12-16T07:57:51;10;10;
64229;PMS5003;50547;49.498;0.092;2022-12-16T08:00:21;10;10;
64229;PMS5003;50547;49.498;0.092;2022-12-16T09:36:09;10;10;
64229;PMS5003;50547;49.498;0.092;2022-12-16T09:38:38;10;10;
64229;PMS5003;50547;49.498;0.092;2022-12-16T09:41:25;10;10;
64229;PMS5003;50547;49.498;0.092;2022-12-16T09:44:06;11;11;
64229;PMS5003;50547;49.498;0.092;2022-12-16T09:46:44;11;11;
64229;PMS5003;50547;49.498;0.092;2022-12-16T09:49:23;10;10;
64229;PMS5003;50547;49.498;0.092;2022-12-16T09:52:03;13;13;
64229;PMS5003;50547;49.498;0.092;2022-12-16T09:54:39;13;13;
64229;PMS5003;50547;49.498;0.092;2022-12-16T09:57:13;18;16;
64229;PMS5003;50547;49.498;0.092;2022-12-16T09:59:43;13;13;
64229;PMS5003;50547;49.498;0.092;2022-12-16T10:02:16;13;13;
64229;PMS5003;50547;49.498;0.092;2022-12-16T10:04:50;13;13;
64229;PMS5003;50547;49.498;0.092;2022-12-16T10:07:19;14;14;
64229;PMS5003;50547;49.498;0.092;2022-12-16T10:09:51;13;13;
64229;PMS5003;50547;49.498;0.092;2022-12-16T10:12:26;11;11;
64229;PMS5003;50547;49.498;0.092;2022-12-16T10:15:06;10;10;
64229;PMS5003;50547;49.498;0.092;2022-12-16T10:17:45;13;13;
64229;PMS5003;50547;49.498;0.092;2022-12-16T10:20:15;11;11;
64229;PMS5003;50547;49.498;0.092;2022-12-16T10:22:50;12;12;
64229;PMS5003;50547;49.498;0.092;2022-12-16T10:25:31;10;10;
64229;PMS5003;50547;49.498;0.092;2022-12-16T10:28:11;11;11;
64229;PMS5003;50547;49.498;0.092;2022-12-16T10:30:44;10;10;
64229;PMS5003;50547;49.498;0.092;2022-12-16T10:33:13;10;10;
64229;PMS5003;50547;49.498;0.092;2022-12-16T10:35:44;10;10;
64229;PMS5003;50547;49.498;0.092;2022-12-16T10:38:19;10;10;
64229;PMS5003;50547;49.498;0.092;2022-12-16T10:40:51;8;8;
64229;PMS5003;50547;49.498;0.092;2022-12-16T10:43:23;10;10;
64229;PMS5003;50547;49.498;0.092;2022-12-16T10:46:03;10;10;
64229;PMS5003;50547;49.498;0.092;2022-12-16T10:48:37;9;9;
64229;PMS5003;50547;49.498;0.092;2022-12-16T10:51:08;10;10;
64229;PMS5003;50547;49.498;0.092;2022-12-16T10:53:40;9;9;
64229;PMS5003;50547;49.498;0.092;2022-12-16T10:56:13;8;8;
64229;PMS5003;50547;49.498;0.092;2022-12-16T10:58:53;7;7;
64229;PMS5003;50547;49.498;0.092;2022-12-16T11:01:26;7;7;
64229;PMS5003;50547;49.498;0.092;2022-12-16T11:03:56;7;7;
64229;PMS5003;50547;49.498;0.092;2022-12-16T11:06:25;6;6;
64229;PMS5003;50547;49.498;0.092;2022-12-16T11:09:34;6;6;
64229;PMS5003;50547;49.498;0.092;2022-12-16T11:12:20;6;6;
64229;PMS5003;50547;49.498;0.092;2022-12-16T11:14:51;4;4;
64229;PMS5003;50547;49.498;0.092;2022-12-16T11:17:21;5;5;
64229;PMS5003;50547;49.498;0.092;2022-12-16T11:19:59;4;4;
64229;PMS5003;50547;49.498;0.092;2022-12-16T11:22:35;5;5;
64229;PMS5003;50547;49.498;0.092;2022-12-16T11:25:05;5;5;
64229;PMS5003;50547;49.498;0.092;2022-12-16T11:27:41;7;7;
64229;PMS5003;50547;49.498;0.092;2022-12-16T11:30:14;8;8;
64229;PMS5003;50547;49.498;0.092;2022-12-16T11:32:56;7;7;
64229;PMS5003;50547;49.498;0.092;2022-12-16T11:35:25;6;6;
64229;PMS5003;50547;49.498;0.092;2022-12-16T11:37:56;6;6;
64229;PMS5003;50547;49.498;0.092;2022-12-16T11:40:28;7;7;
64229;PMS5003;50547;49.498;0.092;2022-12-16T11:43:00;6;6;
64229;PMS5003;50547;49.498;0.092;2022-12-16T11:45:31;5;5;
64229;PMS5003;50547;49.498;0.092;2022-12-16T11:48:00;5;5;
64229;PMS5003;50547;49.498;0.092;2022-12-16T11:50:35;4;4;
64229;PMS5003;50547;49.498;0.092;2022-12-16T11:53:21;6;6;
64229;PMS5003;50547;49.498;0.092;2022-12-16T11:55:56;7;7;
64229;PMS5003;50547;49.498;0.092;2022-12-16T11:58:28;5;5;
64229;PMS5003;50547;49.498;0.092;2022-12-16T12:01:07;5;5;
64229;PMS5003;50547;49.498;0.092;2022-12-16T12:03:45;5;5;
64229;PMS5003;50547;49.498;0.092;2022-12-16T12:06:17;6;6;
64229;PMS5003;50547;49.498;0.092;2022-12-16T12:08:50;8;8;
64229;PMS5003;50547;49.498;0.092;2022-12-16T12:11:27;4;4;
64229;PMS5003;50547;49.498;0.092;2022-12-16T12:14:02;5;5;
64229;PMS5003;50547;49.498;0.092;2022-12-16T12:16:43;6;6;
64229;PMS5003;50547;49.498;0.092;2022-12-16T12:19:23;10;10;
64229;PMS5003;50547;49.498;0.092;2022-12-16T12:22:03;10;10;
64229;PMS5003;50547;49.498;0.092;2022-12-16T12:24:40;43;41;
64229;PMS5003;50547;49.498;0.092;2022-12-16T12:27:20;7;7;
64229;PMS5003;50547;49.498;0.092;2022-12-16T12:30:02;4;4;
64229;PMS5003;50547;49.498;0.092;2022-12-16T12:32:35;4;4;
64229;PMS5003;50547;49.498;0.092;2022-12-16T12:35:18;4;4;
64229;PMS5003;50547;49.498;0.092;2022-12-16T12:37:57;4;4;
64229;PMS5003;50547;49.498;0.092;2022-12-16T12:40:38;4;4;
64229;PMS5003;50547;49.498;0.092;2022-12-16T12:43:18;6;6;
64229;PMS5003;50547;49.498;0.092;2022-12-16T12:45:57;6;6;
64229;PMS5003;50547;49.498;0.092;2022-12-16T12:48:32;7;7;
64229;PMS5003;50547;49.498;0.092;2022-12-16T12:51:09;7;7;
64229;PMS5003;50547;49.498;0.092;2022-12-16T12:53:46;7;7;
64229;PMS5003;50547;49.498;0.092;2022-12-16T12:56:26;7;7;
64229;PMS5003;50547;49.498;0.092;2022-12-16T12:59:04;7;7;
64229;PMS5003;50547;49.498;0.092;2022-12-16T13:01:42;7;7;
64229;PMS5003;50547;49.498;0.092;2022-12-16T13:04:14;10;10;
64229;PMS5003;50547;49.498;0.092;2022-12-16T13:06:45;6;6;
64229;PMS5003;50547;49.498;0.092;2022-12-16T13:09:21;6;6;
64229;PMS5003;50547;49.498;0.092;2022-12-16T13:12:26;6;6;
64229;PMS5003;50547;49.498;0.092;2022-12-16T13:15:01;4;4;
64229;PMS5003;50547;49.498;0.092;2022-12-16T13:17:31;7;7;
64229;PMS5003;50547;49.498;0.092;2022-12-16T13:20:45;5;5;
64229;PMS5003;50547;49.498;0.092;2022-12-16T13:23:28;5;5;
64229;PMS5003;50547;49.498;0.092;2022-12-16T13:26:06;8;8;
64229;PMS5003;50547;49.498;0.092;2022-12-16T13:28:37;8;8;
64229;PMS5003;50547;49.498;0.092;2022-12-16T13:31:08;7;7;
64229;PMS5003;50547;49.498;0.092;2022-12-16T13:33:36;9;9;
64229;PMS5003;50547;49.498;0.092;2022-12-16T13:36:06;7;7;
64229;PMS5003;50547;49.498;0.092;2022-12-16T13:38:34;7;7;
64229;PMS5003;50547;49.498;0.092;2022-12-16T13:41:04;7;7;
64229;PMS5003;50547;49.498;0.092;2022-12-16T13:44:52;7;7;
64229;PMS5003;50547;49.498;0.092;2022-12-16T13:47:31;7;7;
64229;PMS5003;50547;49.498;0.092;2022-12-16T13:49:59;7;7;
64229;PMS5003;50547;49.498;0.092;2022-12-16T13:53:04;6;6;
64229;PMS5003;50547;49.498;0.092;2022-12-16T13:55:37;6;6;
64229;PMS5003;50547;49.498;0.092;2022-12-16T13:58:14;10;10;
64229;PMS5003;50547;49.498;0.092;2022-12-16T14:00:53;7;7;
64229;PMS5003;50547;49.498;0.092;2022-12-16T14:03:32;13;13;
64229;PMS5003;50547;49.498;0.092;2022-12-16T14:06:08;7;7;
64229;PMS5003;50547;49.498;0.092;2022-12-16T14:08:52;10;10;
64229;PMS5003;50547;49.498;0.092;2022-12-16T14:11:22;9;9;
64229;PMS5003;50547;49.498;0.092;2022-12-16T14:14:01;4;4;
64229;PMS5003;50547;49.498;0.092;2022-12-16T14:16:39;4;4;
64229;PMS5003;50547;49.498;0.092;2022-12-16T14:19:19;10;10;
64229;PMS5003;50547;49.498;0.092;2022-12-16T14:21:53;11;11;
64229;PMS5003;50547;49.498;0.092;2022-12-16T14:24:30;6;6;
64229;PMS5003;50547;49.498;0.092;2022-12-16T14:27:03;6;6;
64229;PMS5003;50547;49.498;0.092;2022-12-16T14:29:33;4;4;
64229;PMS5003;50547;49.498;0.092;2022-12-16T14:32:16;4;4;
64229;PMS5003;50547;49.498;0.092;2022-12-16T14:34:46;3;3;
64229;PMS5003;50547;49.498;0.092;2022-12-16T14:37:16;4;4;
64229;PMS5003;50547;49.498;0.092;2022-12-16T14:39:47;4;4;
64229;PMS5003;50547;49.498;0.092;2022-12-16T14:42:21;3;3;
64229;PMS5003;50547;49.498;0.092;2022-12-16T14:44:49;3;3;
64229;PMS5003;50547;49.498;0.092;2022-12-16T14:47:19;6;6;
64229;PMS5003;50547;49.498;0.092;2022-12-16T14:49:50;5;5;
64229;PMS5003;50547;49.498;0.092;2022-12-16T14:52:21;4;4;
64229;PMS5003;50547;49.498;0.092;2022-12-16T14:54:52;4;4;
64229;PMS5003;50547;49.498;0.092;2022-12-16T14:57:22;8;8;
64229;PMS5003;50547;49.498;0.092;2022-12-16T15:00:03;7;7;
64229;PMS5003;50547;49.498;0.092;2022-12-16T15:02:39;4;4;
64229;PMS5003;50547;49.498;0.092;2022-12-16T15:05:12;4;4;
64229;PMS5003;50547;49.498;0.092;2022-12-16T15:07:42;5;5;
64229;PMS5003;50547;49.498;0.092;2022-12-16T15:10:11;5;5;
64229;PMS5003;50547;49.498;0.092;2022-12-16T15:12:42;5;5;
64229;PMS5003;50547;49.498;0.092;2022-12-16T15:15:15;4;4;
64229;PMS5003;50547;49.498;0.092;2022-12-16T15:17:48;4;4;
64229;PMS5003;50547;49.498;0.092;2022-12-16T15:20:19;5;5;
64229;PMS5003;50547;49.498;0.092;2022-12-16T15:22:50;5;5;
64229;PMS5003;50547;49.498;0.092;2022-12-16T15:25:20;4;4;
64229;PMS5003;50547;49.498;0.092;2022-12-16T15:27:52;4;4;
64229;PMS5003;50547;49.498;0.092;2022-12-16T15:30:31;4;4;
64229;PMS5003;50547;49.498;0.092;2022-12-16T15:33:04;4;4;
64229;PMS5003;50547;49.498;0.092;2022-12-16T15:35:34;5;5;
64229;PMS5003;50547;49.498;0.092;2022-12-16T15:38:09;5;5;
64229;PMS5003;50547;49.498;0.092;2022-12-16T15:40:39;5;5;
64229;PMS5003;50547;49.498;0.092;2022-12-16T15:43:26;7;7;
64229;PMS5003;50547;49.498;0.092;2022-12-16T15:45:57;7;7;
64229;PMS5003;50547;49.498;0.092;2022-12-16T15:48:27;7;7;
64229;PMS5003;50547;49.498;0.092;2022-12-16T15:50:58;7;7;
64229;PMS5003;50547;49.498;0.092;2022-12-16T15:53:35;7;7;
64229;PMS5003;50547;49.498;0.092;2022-12-16T15:56:14;7;7;
64229;PMS5003;50547;49.498;0.092;2022-12-16T15:58:44;7;7;
64229;PMS5003;50547;49.498;0.092;2022-12-16T16:01:14;9;9;
64229;PMS5003;50547;49.498;0.092;2022-12-16T16:03:49;10;10;
64229;PMS5003;50547;49.498;0.092;2022-12-16T16:06:20;10;10;
64229;PMS5003;50547;49.498;0.092;2022-12-16T16:08:51;10;10;
64229;PMS5003;50547;49.498;0.092;2022-12-16T16:11:20;11;11;
64229;PMS5003;50547;49.498;0.092;2022-12-16T16:13:49;13;13;
64229;PMS5003;50547;49.498;0.092;2022-12-16T16:16:15;14;14;
64229;PMS5003;50547;49.498;0.092;2022-12-16T16:18:46;14;14;
64229;PMS5003;50547;49.498;0.092;2022-12-16T16:21:15;25;22;
64229;PMS5003;50547;49.498;0.092;2022-12-16T16:23:44;26;23;
64229;PMS5003;50547;49.498;0.092;2022-12-16T16:26:14;28;24;
64229;PMS5003;50547;49.498;0.092;2022-12-16T16:28:45;31;27;
64229;PMS5003;50547;49.498;0.092;2022-12-16T16:31:14;26;23;
64229;PMS5003;50547;49.498;0.092;2022-12-16T16:33:43;31;27;
64229;PMS5003;50547;49.498;0.092;2022-12-16T16:36:13;26;23;
64229;PMS5003;50547;49.498;0.092;2022-12-16T16:38:43;30;26;
64229;PMS5003;50547;49.498;0.092;2022-12-16T16:41:12;30;26;
64229;PMS5003;50547;49.498;0.092;2022-12-16T16:43:42;34;29;
64229;PMS5003;50547;49.498;0.092;2022-12-16T16:46:16;35;30;
64229;PMS5003;50547;49.498;0.092;2022-12-16T16:48:58;37;33;
64229;PMS5003;50547;49.498;0.092;2022-12-16T16:51:27;35;30;
64229;PMS5003;50547;49.498;0.092;2022-12-16T16:53:56;38;35;
64229;PMS5003;50547;49.498;0.092;2022-12-16T16:56:25;87;73;
64229;PMS5003;50547;49.498;0.092;2022-12-16T16:58:56;71;61;
64229;PMS5003;50547;49.498;0.092;2022-12-16T17:01:25;37;33;
64229;PMS5003;50547;49.498;0.092;2022-12-16T17:03:54;42;40;
64229;PMS5003;50547;49.498;0.092;2022-12-16T17:06:23;38;35;
64229;PMS5003;50547;49.498;0.092;2022-12-16T17:08:52;37;33;
64229;PMS5003;50547;49.498;0.092;2022-12-16T17:11:22;35;30;
64229;PMS5003;50547;49.498;0.092;2022-12-16T17:13:51;25;22;
64229;PMS5003;50547;49.498;0.092;2022-12-16T17:16:20;20;17;
64229;PMS5003;50547;49.498;0.092;2022-12-16T17:18:46;21;18;
64229;PMS5003;50547;49.498;0.092;2022-12-16T17:21:13;22;19;
64229;PMS5003;50547;49.498;0.092;2022-12-16T17:23:42;23;20;
64229;PMS5003;50547;49.498;0.092;2022-12-16T17:26:11;23;20;
64229;PMS5003;50547;49.498;0.092;2022-12-16T17:28:40;23;20;
64229;PMS5003;50547;49.498;0.092;2022-12-16T17:31:09;23;20;
64229;PMS5003;50547;49.498;0.092;2022-12-16T17:33:39;26;23;
64229;PMS5003;50547;49.498;0.092;2022-12-16T17:36:09;28;24;
64229;PMS5003;50547;49.498;0.092;2022-12-16T17:38:40;27;23;
64229;PMS5003;50547;49.498;0.092;2022-12-16T17:41:11;23;20;
64229;PMS5003;50547;49.498;0.092;2022-12-16T17:43:40;24;21;
64229;PMS5003;50547;49.498;0.092;2022-12-16T17:46:10;24;21;
64229;PMS5003;50547;49.498;0.092;2022-12-16T17:48:39;24;21;
64229;PMS5003;50547;49.498;0.092;2022-12-16T17:51:08;24;21;
64229;PMS5003;50547;49.498;0.092;2022-12-16T17:53:37;27;23;
64229;PMS5003;50547;49.498;0.092;2022-12-16T17:56:08;23;20;
64229;PMS5003;50547;49.498;0.092;2022-12-16T17:58:37;23;20;
64229;PMS5003;50547;49.498;0.092;2022-12-16T18:01:07;25;22;
64229;PMS5003;50547;49.498;0.092;2022-12-16T18:03:37;27;23;
64229;PMS5003;50547;49.498;0.092;2022-12-16T18:06:06;27;23;
64229;PMS5003;50547;49.498;0.092;2022-12-16T18:08:35;23;20;
64229;PMS5003;50547;49.498;0.092;2022-12-16T18:11:04;21;18;
64229;PMS5003;50547;49.498;0.092;2022-12-16T18:13:33;26;23;
64229;PMS5003;50547;49.498;0.092;2022-12-16T18:16:02;26;23;
64229;PMS5003;50547;49.498;0.092;2022-12-16T18:18:33;29;25;
64229;PMS5003;50547;49.498;0.092;2022-12-16T18:21:07;28;24;
64229;PMS5003;50547;49.498;0.092;2022-12-16T18:23:37;30;26;
64229;PMS5003;50547;49.498;0.092;2022-12-16T18:26:07;31;27;
64229;PMS5003;50547;49.498;0.092;2022-12-16T18:28:37;33;28;
64229;PMS5003;50547;49.498;0.092;2022-12-16T18:31:06;34;29;
64229;PMS5003;50547;49.498;0.092;2022-12-16T18:33:36;34;29;
64229;PMS5003;50547;49.498;0.092;2022-12-16T18:36:05;36;31;
64229;PMS5003;50547;49.498;0.092;2022-12-16T18:38:35;44;43;
64229;PMS5003;50547;49.498;0.092;2022-12-16T18:41:05;42;40;